Time;durP1;ratioP1;P1;durP2;ratioP2;P2;SDS_P1;SDS_P2;PMS_P1;PMS_P2;Temp;Humidity;BMP_temperature;BMP_pressure;BME280_temperature;BME280_humidity;BME280_pressure;Samples;Min_cycle;Max_cycle;Signal;HPM_P1;HPM_P2
2023/12/30 00:01:27;;;;;;;2.00;1.10;;;8.10;41.80;;;;;;5024495;28;47508;-79
2023/12/30 00:03:53;;;;;;;3.00;1.33;;;8.00;41.80;;;;;;5037917;28;46502;-78
2023/12/30 00:06:19;;;;;;;2.17;1.57;;;8.00;42.20;;;;;;5037240;28;46592;-78
2023/12/30 00:08:45;;;;;;;3.10;1.50;;;8.00;42.30;;;;;;5022391;28;48211;-78
2023/12/30 00:11:11;;;;;;;4.40;1.27;;;8.00;42.40;;;;;;5022386;28;47739;-78
2023/12/30 00:13:39;;;;;;;2.03;1.20;;;7.90;42.50;;;;;;5038252;28;46804;-77
2023/12/30 00:16:05;;;;;;;2.93;1.80;;;7.80;42.70;;;;;;5039064;28;46408;-79
2023/12/30 00:18:31;;;;;;;2.20;1.30;;;7.70;42.90;;;;;;5023863;28;49154;-79
2023/12/30 00:20:58;;;;;;;3.20;1.97;;;7.70;43.00;;;;;;5039155;28;46428;-78
2023/12/30 00:23:23;;;;;;;1.83;1.00;;;7.70;43.00;;;;;;5021394;28;46444;-79
2023/12/30 00:25:49;;;;;;;2.47;1.10;;;7.70;42.90;;;;;;5040215;28;46453;-79
2023/12/30 00:28:14;;;;;;;1.63;1.10;;;7.80;43.00;;;;;;5038815;28;46431;-79
2023/12/30 00:30:40;;;;;;;3.20;1.50;;;7.70;43.00;;;;;;5038434;28;46474;-77
2023/12/30 00:33:06;;;;;;;2.03;1.20;;;7.70;43.00;;;;;;5040216;28;46541;-80
2023/12/30 00:35:31;;;;;;;2.00;1.30;;;7.70;43.30;;;;;;5040025;28;46593;-79
2023/12/30 00:37:57;;;;;;;2.70;1.40;;;7.70;43.30;;;;;;5020684;28;48030;-79
2023/12/30 00:40:22;;;;;;;2.33;1.30;;;7.60;43.20;;;;;;5039987;28;46438;-79
2023/12/30 00:42:48;;;;;;;2.27;1.60;;;7.60;43.30;;;;;;5040426;28;46498;-80
2023/12/30 00:45:13;;;;;;;3.13;1.50;;;7.60;43.50;;;;;;5037994;28;48956;-79
2023/12/30 00:47:39;;;;;;;2.83;1.90;;;7.60;43.60;;;;;;5035220;28;46506;-78
2023/12/30 00:50:04;;;;;;;2.33;1.40;;;7.60;43.70;;;;;;5037837;28;46750;-78
2023/12/30 00:52:30;;;;;;;2.93;1.40;;;7.60;43.70;;;;;;5037907;28;46467;-78
2023/12/30 00:54:56;;;;;;;1.80;1.10;;;7.60;43.90;;;;;;5036788;28;46269;-80
2023/12/30 00:57:21;;;;;;;2.40;1.50;;;7.50;43.80;;;;;;5037662;28;46518;-80
2023/12/30 00:59:47;;;;;;;2.50;1.70;;;7.50;43.80;;;;;;5036708;28;46505;-79
2023/12/30 01:02:12;;;;;;;2.00;1.30;;;7.50;43.90;;;;;;5039025;28;46506;-78
2023/12/30 01:04:38;;;;;;;3.80;1.47;;;7.50;44.00;;;;;;5039076;28;47515;-80
2023/12/30 01:07:03;;;;;;;2.80;1.83;;;7.50;44.20;;;;;;5040011;28;46506;-80
2023/12/30 01:09:30;;;;;;;2.47;1.40;;;7.50;44.40;;;;;;5042284;28;46858;-78
2023/12/30 01:11:55;;;;;;;2.10;1.60;;;7.50;44.50;;;;;;5040506;28;46380;-79
2023/12/30 01:14:21;;;;;;;6.33;2.23;;;7.40;44.70;;;;;;5041980;28;46412;-79
2023/12/30 01:16:47;;;;;;;2.60;1.70;;;7.40;44.80;;;;;;5041441;28;46349;-80
2023/12/30 01:19:12;;;;;;;2.77;1.73;;;7.40;45.00;;;;;;5040532;28;46429;-80
2023/12/30 01:21:38;;;;;;;2.63;1.60;;;7.40;45.00;;;;;;5040693;28;46485;-81
2023/12/30 01:24:04;;;;;;;2.53;1.87;;;7.40;45.00;;;;;;5048940;28;46457;-80
2023/12/30 01:26:29;;;;;;;2.40;1.77;;;7.50;45.10;;;;;;5051602;28;47291;-78
2023/12/30 01:28:55;;;;;;;3.20;1.60;;;7.50;45.10;;;;;;5050742;28;46001;-80
2023/12/30 01:31:20;;;;;;;3.53;1.90;;;7.50;45.20;;;;;;5039329;28;46593;-80
2023/12/30 01:33:46;;;;;;;3.27;1.93;;;7.50;45.30;;;;;;5038753;28;46495;-79
2023/12/30 01:36:12;;;;;;;3.50;1.90;;;7.50;45.40;;;;;;5040657;28;46490;-80
2023/12/30 01:38:38;;;;;;;3.10;2.10;;;7.50;45.50;;;;;;5040158;28;46752;-81
2023/12/30 01:41:04;;;;;;;3.37;2.07;;;7.50;45.50;;;;;;5019436;28;46847;-80
2023/12/30 01:43:30;;;;;;;3.33;1.93;;;7.50;45.50;;;;;;5041123;28;45966;-80
2023/12/30 01:45:59;;;;;;;2.90;1.70;;;7.50;45.50;;;;;;5021098;28;48294;-80
2023/12/30 01:48:26;;;;;;;3.90;1.80;;;7.50;45.70;;;;;;5040458;28;46400;-80
2023/12/30 01:50:52;;;;;;;3.10;1.93;;;7.50;45.70;;;;;;5041012;28;46651;-80
2023/12/30 01:53:19;;;;;;;4.10;1.77;;;7.50;45.90;;;;;;5038665;28;46853;-79
2023/12/30 01:55:49;;;;;;;3.87;2.30;;;7.40;46.10;;;;;;5038080;28;46897;-78
2023/12/30 01:58:14;;;;;;;3.67;2.10;;;7.40;46.10;;;;;;5038100;28;46494;-80
2023/12/30 02:00:41;;;;;;;3.93;2.00;;;7.30;46.20;;;;;;5036865;28;46611;-80
2023/12/30 02:03:07;;;;;;;4.00;1.93;;;7.30;46.20;;;;;;5021704;28;46705;-79
2023/12/30 02:05:34;;;;;;;3.57;2.00;;;7.30;46.40;;;;;;5041046;28;46449;-80
2023/12/30 02:08:00;;;;;;;4.43;2.07;;;7.40;46.50;;;;;;5023674;28;47187;-80
2023/12/30 02:10:25;;;;;;;2.80;1.97;;;7.40;46.60;;;;;;5043413;28;46637;-79
2023/12/30 02:12:51;;;;;;;2.33;1.70;;;7.40;46.50;;;;;;5022081;28;45881;-80
2023/12/30 02:15:24;;;;;;;3.23;1.83;;;7.30;46.50;;;;;;5041346;28;48026;-79
2023/12/30 02:17:51;;;;;;;3.90;1.90;;;7.30;46.50;;;;;;5024774;28;47029;-79
2023/12/30 02:20:18;;;;;;;2.30;1.60;;;7.30;46.50;;;;;;5024848;28;46467;-81
2023/12/30 02:22:47;;;;;;;3.50;1.80;;;7.30;46.30;;;;;;5023596;28;46622;-78
2023/12/30 02:25:13;;;;;;;2.87;1.90;;;7.30;46.50;;;;;;5042380;28;46957;-79
2023/12/30 02:27:41;;;;;;;3.17;1.77;;;7.30;46.50;;;;;;5042048;28;46815;-79
2023/12/30 02:30:07;;;;;;;7.50;2.10;;;7.30;46.50;;;;;;5025152;28;46952;-79
2023/12/30 02:32:33;;;;;;;5.30;1.50;;;7.30;46.40;;;;;;5039796;28;46523;-79
2023/12/30 02:34:58;;;;;;;2.00;1.40;;;7.30;46.20;;;;;;5038841;28;46440;-80
2023/12/30 02:37:24;;;;;;;3.73;1.83;;;7.30;46.30;;;;;;5040490;28;46492;-80
2023/12/30 02:39:49;;;;;;;3.20;1.47;;;7.30;46.20;;;;;;5041997;28;46946;-80
2023/12/30 02:42:15;;;;;;;2.70;1.60;;;7.30;46.20;;;;;;5022057;28;46400;-80
2023/12/30 02:44:40;;;;;;;2.60;1.33;;;7.20;46.20;;;;;;5022613;28;48904;-79
2023/12/30 02:47:06;;;;;;;2.60;1.50;;;7.20;46.20;;;;;;5014880;28;46567;-79
2023/12/30 02:49:33;;;;;;;2.50;1.30;;;7.20;46.10;;;;;;5025070;28;46762;-78
2023/12/30 02:51:59;;;;;;;4.33;1.70;;;7.20;45.80;;;;;;5042217;28;46531;-78
2023/12/30 02:54:24;;;;;;;2.47;1.20;;;7.30;45.70;;;;;;5042230;28;46449;-77
2023/12/30 02:56:50;;;;;;;2.70;1.10;;;7.30;45.40;;;;;;5021404;28;46919;-80
2023/12/30 02:59:15;;;;;;;3.27;1.60;;;7.30;45.10;;;;;;5022784;28;46754;-80
2023/12/30 03:01:41;;;;;;;2.80;1.30;;;7.40;45.00;;;;;;5041682;28;46678;-79
2023/12/30 03:04:06;;;;;;;3.93;1.40;;;7.40;44.70;;;;;;5042156;28;47265;-78
2023/12/30 03:06:32;;;;;;;2.47;1.20;;;7.40;44.60;;;;;;5040682;28;46063;-79
2023/12/30 03:08:57;;;;;;;8.10;1.50;;;7.40;44.40;;;;;;5041871;28;46007;-78
2023/12/30 03:11:23;;;;;;;2.27;1.30;;;7.40;44.30;;;;;;5023074;28;46460;-79
2023/12/30 03:13:49;;;;;;;4.33;1.30;;;7.40;44.40;;;;;;5038267;28;46590;-79
2023/12/30 03:16:15;;;;;;;5.03;1.63;;;7.40;44.40;;;;;;5040804;28;46597;-78
2023/12/30 03:18:41;;;;;;;2.97;1.40;;;7.40;44.30;;;;;;5023314;28;46357;-80
2023/12/30 03:21:08;;;;;;;2.40;1.30;;;7.30;44.20;;;;;;5040305;28;46581;-79
2023/12/30 03:23:38;;;;;;;8.90;1.57;;;7.30;44.20;;;;;;5016633;28;49121;-80
2023/12/30 03:26:04;;;;;;;2.57;1.50;;;7.30;44.10;;;;;;5044435;28;46477;-78
2023/12/30 03:28:30;;;;;;;2.50;1.23;;;7.40;44.00;;;;;;5043317;28;46676;-79
2023/12/30 03:30:56;;;;;;;2.87;1.47;;;7.30;43.80;;;;;;5040145;28;45958;-79
2023/12/30 03:33:22;;;;;;;1.90;1.10;;;7.30;43.70;;;;;;5041975;28;47095;-79
2023/12/30 03:35:48;;;;;;;2.33;1.30;;;7.30;44.90;;;;;;5042709;28;46701;-78
2023/12/30 03:38:13;;;;;;;4.07;1.30;;;7.30;43.60;;;;;;5044800;28;46443;-80
2023/12/30 03:40:39;;;;;;;2.70;1.40;;;7.30;43.50;;;;;;5041052;28;47046;-79
2023/12/30 03:43:05;;;;;;;3.90;1.60;;;7.30;43.40;;;;;;5039748;28;46449;-79
2023/12/30 03:45:31;;;;;;;3.33;1.37;;;7.40;43.40;;;;;;5024034;28;46742;-79
2023/12/30 03:47:56;;;;;;;2.10;1.20;;;7.40;43.30;;;;;;5039082;28;46598;-79
2023/12/30 03:50:22;;;;;;;2.17;1.43;;;7.40;43.20;;;;;;5040847;28;46747;-79
2023/12/30 03:52:48;;;;;;;3.40;1.63;;;7.40;43.20;;;;;;5038947;28;46406;-78
2023/12/30 03:55:14;;;;;;;2.10;1.10;;;7.30;43.20;;;;;;5037961;28;46440;-79
2023/12/30 03:57:40;;;;;;;3.00;1.33;;;7.30;43.30;;;;;;5040621;28;46586;-79
2023/12/30 04:00:06;;;;;;;2.30;1.50;;;7.30;43.10;;;;;;5037363;28;46745;-79
2023/12/30 04:02:31;;;;;;;2.53;1.10;;;7.30;42.90;;;;;;5038207;28;46794;-78
2023/12/30 04:04:57;;;;;;;3.60;1.50;;;7.30;43.00;;;;;;5036752;28;46910;-78
2023/12/30 04:07:22;;;;;;;2.77;1.20;;;7.30;42.90;;;;;;5040402;28;46484;-77
2023/12/30 04:09:48;;;;;;;2.93;1.33;;;7.30;42.70;;;;;;5021808;28;46891;-78
2023/12/30 04:12:14;;;;;;;2.30;1.30;;;7.30;42.60;;;;;;5038307;28;46745;-78
2023/12/30 04:14:40;;;;;;;2.70;1.20;;;7.30;42.40;;;;;;5036951;28;46749;-77
2023/12/30 04:17:05;;;;;;;5.90;1.33;;;7.30;42.20;;;;;;5037063;28;46523;-78
2023/12/30 04:19:31;;;;;;;2.27;1.40;;;7.40;42.20;;;;;;5037781;28;47176;-79
2023/12/30 04:21:56;;;;;;;2.27;1.20;;;7.30;42.00;;;;;;5037677;28;46672;-79
2023/12/30 04:24:22;;;;;;;2.77;1.50;;;7.30;42.10;;;;;;5018245;28;46531;-79
2023/12/30 04:26:49;;;;;;;3.90;1.43;;;7.40;42.10;;;;;;5041217;28;47993;-78
2023/12/30 04:29:15;;;;;;;3.63;1.60;;;7.40;41.60;;;;;;5020411;28;45989;-78
2023/12/30 04:31:41;;;;;;;5.23;1.20;;;7.60;41.20;;;;;;5036462;28;46805;-78
2023/12/30 04:34:06;;;;;;;3.60;1.17;;;7.60;40.80;;;;;;5026879;28;46502;-79
2023/12/30 04:36:32;;;;;;;4.80;1.10;;;7.70;40.40;;;;;;5047544;28;46500;-80
2023/12/30 04:38:58;;;;;;;3.70;1.63;;;7.70;40.10;;;;;;5048702;28;45882;-79
2023/12/30 04:41:23;;;;;;;3.40;1.20;;;7.80;39.90;;;;;;5023132;28;48536;-79
2023/12/30 04:43:49;;;;;;;2.93;1.17;;;7.90;39.90;;;;;;5037792;28;46479;-80
2023/12/30 04:46:15;;;;;;;2.40;1.17;;;7.90;39.60;;;;;;5038739;28;47358;-81
2023/12/30 04:48:40;;;;;;;2.60;1.00;;;8.00;39.50;;;;;;5041445;28;46353;-78
2023/12/30 04:51:06;;;;;;;1.93;1.07;;;8.00;39.20;;;;;;5038707;28;46682;-79
2023/12/30 04:53:33;;;;;;;1.63;1.13;;;8.10;39.00;;;;;;5039372;28;46361;-79
2023/12/30 04:55:58;;;;;;;1.70;1.00;;;8.20;38.70;;;;;;5020182;28;46407;-79
2023/12/30 04:58:24;;;;;;;1.70;0.90;;;8.20;38.20;;;;;;5014193;28;46563;-79
2023/12/30 05:00:50;;;;;;;2.83;1.10;;;8.30;37.90;;;;;;5020898;28;48015;-79
2023/12/30 05:03:16;;;;;;;6.33;1.40;;;8.30;37.90;;;;;;5038507;28;46517;-76
2023/12/30 05:05:42;;;;;;;2.93;1.20;;;8.30;37.90;;;;;;5040260;28;46476;-79
2023/12/30 05:08:08;;;;;;;3.63;1.00;;;8.40;38.00;;;;;;5035532;28;46752;-80
2023/12/30 05:10:33;;;;;;;1.80;1.00;;;8.40;38.00;;;;;;5039508;28;46630;-80
2023/12/30 05:13:03;;;;;;;2.53;1.20;;;8.40;38.00;;;;;;5038200;28;46468;-79
2023/12/30 05:15:28;;;;;;;2.33;1.10;;;8.40;38.00;;;;;;5039611;28;46519;-79
2023/12/30 05:17:54;;;;;;;3.13;1.00;;;8.40;38.00;;;;;;5040347;28;46799;-79
2023/12/30 05:20:20;;;;;;;2.00;1.00;;;8.40;37.60;;;;;;5036818;28;47793;-80
2023/12/30 05:22:45;;;;;;;3.67;0.90;;;8.50;37.90;;;;;;5037428;28;46430;-78
2023/12/30 05:25:11;;;;;;;2.40;1.20;;;8.60;37.00;;;;;;5038355;28;46467;-79
2023/12/30 05:27:37;;;;;;;7.63;1.20;;;8.60;36.60;;;;;;5040573;28;46467;-80
2023/12/30 05:30:08;;;;;;;2.00;1.00;;;8.70;36.60;;;;;;5039684;28;47409;-79
2023/12/30 05:32:34;;;;;;;2.20;0.93;;;8.70;36.10;;;;;;5039634;28;46778;-79
2023/12/30 05:35:00;;;;;;;3.07;1.10;;;8.70;36.00;;;;;;5044146;28;46514;-80
2023/12/30 05:37:25;;;;;;;2.80;1.10;;;8.80;35.90;;;;;;5043832;28;45916;-80
2023/12/30 05:39:51;;;;;;;2.60;1.30;;;8.80;35.60;;;;;;5042259;28;47284;-79
2023/12/30 05:42:17;;;;;;;2.23;1.10;;;8.90;35.50;;;;;;5037602;28;46994;-79
2023/12/30 05:44:42;;;;;;;2.93;1.30;;;8.90;35.40;;;;;;5040216;28;46482;-78
2023/12/30 05:47:08;;;;;;;6.43;1.70;;;8.90;35.10;;;;;;5025946;28;46605;-78
2023/12/30 05:49:36;;;;;;;4.20;1.30;;;8.90;35.10;;;;;;5041246;28;46442;-80
2023/12/30 05:52:02;;;;;;;2.30;1.30;;;8.80;35.20;;;;;;5039076;28;46859;-78
2023/12/30 05:54:28;;;;;;;6.60;1.57;;;8.70;35.40;;;;;;5040890;28;46169;-79
2023/12/30 05:56:54;;;;;;;2.50;1.20;;;8.50;35.70;;;;;;5042058;28;46595;-78
2023/12/30 05:59:19;;;;;;;3.83;1.30;;;8.40;36.20;;;;;;5040505;28;46513;-80
2023/12/30 06:01:45;;;;;;;2.40;1.20;;;8.30;36.70;;;;;;5023730;28;46856;-79
2023/12/30 06:04:12;;;;;;;3.17;1.47;;;8.20;37.20;;;;;;5040317;28;46643;-80
2023/12/30 06:06:37;;;;;;;5.40;1.40;;;8.10;37.80;;;;;;5023086;28;46950;-78
2023/12/30 06:09:03;;;;;;;7.20;2.10;;;8.10;37.70;;;;;;5039866;28;48765;-75
2023/12/30 06:11:29;;;;;;;2.43;1.40;;;8.10;37.80;;;;;;5039796;28;46579;-79
2023/12/30 06:13:54;;;;;;;2.97;1.40;;;8.00;37.70;;;;;;5041888;28;46559;-79
2023/12/30 06:16:20;;;;;;;3.07;1.30;;;8.00;37.70;;;;;;5023309;28;45953;-80
2023/12/30 06:18:46;;;;;;;3.73;1.30;;;8.00;37.70;;;;;;5044041;28;46847;-79
2023/12/30 06:21:11;;;;;;;3.20;1.73;;;8.10;37.70;;;;;;5039880;28;45887;-78
2023/12/30 06:23:37;;;;;;;3.97;1.33;;;8.10;37.30;;;;;;5041419;28;46361;-79
2023/12/30 06:26:03;;;;;;;6.53;1.67;;;8.20;37.10;;;;;;5040446;28;47202;-79
2023/12/30 06:28:28;;;;;;;2.60;1.47;;;8.30;36.90;;;;;;5020361;28;48596;-78
2023/12/30 06:30:54;;;;;;;4.23;1.60;;;8.30;36.60;;;;;;5038506;28;45823;-77
2023/12/30 06:33:21;;;;;;;2.80;1.60;;;8.30;36.40;;;;;;5038408;28;46496;-78
2023/12/30 06:35:47;;;;;;;4.47;1.60;;;8.40;36.60;;;;;;5042263;28;45906;-79
2023/12/30 06:38:16;;;;;;;2.90;1.90;;;8.40;36.40;;;;;;5018791;28;48803;-79
2023/12/30 06:40:42;;;;;;;3.87;2.17;;;8.40;36.30;;;;;;5021396;28;46761;-78
2023/12/30 06:43:08;;;;;;;3.73;2.20;;;8.40;36.60;;;;;;5039698;28;46637;-79
2023/12/30 06:45:34;;;;;;;4.23;2.43;;;8.30;36.80;;;;;;5038449;28;45910;-82
2023/12/30 06:48:00;;;;;;;4.27;2.30;;;8.20;37.30;;;;;;5019971;28;48614;-79
2023/12/30 06:50:26;;;;;;;4.97;3.07;;;8.00;37.70;;;;;;5038462;28;46655;-76
2023/12/30 06:52:54;;;;;;;3.87;2.40;;;7.90;37.60;;;;;;5039183;28;46612;-79
2023/12/30 06:55:19;;;;;;;5.20;2.90;;;7.80;38.10;;;;;;5037894;28;46713;-78
2023/12/30 06:57:45;;;;;;;5.03;2.87;;;7.70;38.40;;;;;;5039292;28;47498;-78
2023/12/30 07:00:11;;;;;;;5.30;3.20;;;7.60;38.90;;;;;;5025899;28;46622;-76
2023/12/30 07:02:36;;;;;;;7.20;4.00;;;7.50;39.50;;;;;;4999071;28;46540;-77
2023/12/30 07:05:02;;;;;;;6.10;3.60;;;7.40;40.00;;;;;;5021689;28;46744;-79
2023/12/30 07:07:28;;;;;;;7.50;4.40;;;7.30;40.30;;;;;;5037366;28;47016;-81
2023/12/30 07:09:53;;;;;;;8.73;4.20;;;7.30;40.80;;;;;;5036785;28;47035;-80
2023/12/30 07:12:19;;;;;;;7.23;3.83;;;7.30;41.00;;;;;;5037071;28;46693;-79
2023/12/30 07:14:44;;;;;;;8.53;3.97;;;7.20;41.10;;;;;;5038848;28;46163;-81
2023/12/30 07:17:10;;;;;;;6.77;4.23;;;7.20;41.10;;;;;;5040458;28;48494;-75
2023/12/30 07:19:35;;;;;;;5.93;4.20;;;7.20;41.40;;;;;;5052155;28;50084;-79
2023/12/30 07:22:01;;;;;;;8.30;4.23;;;7.20;41.40;;;;;;5042225;28;46621;-80
2023/12/30 07:24:27;;;;;;;7.00;4.23;;;7.20;41.60;;;;;;5040673;28;46432;-79
2023/12/30 07:26:52;;;;;;;6.37;4.00;;;7.10;41.60;;;;;;5041036;28;46702;-80
2023/12/30 07:29:18;;;;;;;7.17;4.00;;;7.10;41.70;;;;;;5043157;28;46772;-77
2023/12/30 07:31:43;;;;;;;7.50;4.20;;;7.10;41.90;;;;;;5040853;28;46803;-78
2023/12/30 07:34:10;;;;;;;6.70;3.97;;;7.10;42.10;;;;;;5021356;28;46472;-78
2023/12/30 07:36:36;;;;;;;9.70;5.43;;;7.10;42.00;;;;;;5022063;28;48057;-79
2023/12/30 07:39:01;;;;;;;6.17;3.73;;;7.00;42.00;;;;;;5023827;28;46798;-78
2023/12/30 07:41:27;;;;;;;6.20;4.07;;;7.10;42.20;;;;;;5022400;28;46513;-78
2023/12/30 07:43:52;;;;;;;4.27;2.93;;;7.10;42.10;;;;;;5040048;28;46669;-78
2023/12/30 07:46:18;;;;;;;5.07;3.50;;;7.10;42.20;;;;;;5020919;28;48576;-78
2023/12/30 07:48:44;;;;;;;6.50;3.33;;;7.10;42.20;;;;;;5040314;28;45788;-78
2023/12/30 07:51:09;;;;;;;13.30;4.60;;;7.10;42.00;;;;;;5024609;28;46755;-78
2023/12/30 07:53:35;;;;;;;7.13;3.93;;;7.10;42.10;;;;;;5041573;28;46456;-78
2023/12/30 07:56:02;;;;;;;5.13;3.17;;;7.10;42.10;;;;;;5039722;28;46192;-77
2023/12/30 07:58:28;;;;;;;6.07;3.23;;;7.20;42.10;;;;;;5021143;28;46762;-79
2023/12/30 08:00:53;;;;;;;7.20;3.47;;;7.20;42.00;;;;;;5038854;28;46419;-77
2023/12/30 08:03:19;;;;;;;3.97;2.83;;;7.30;42.00;;;;;;5038942;28;46480;-78
2023/12/30 08:05:44;;;;;;;5.10;3.30;;;7.40;42.00;;;;;;5023245;28;48981;-78
2023/12/30 08:08:12;;;;;;;4.00;2.80;;;7.40;41.80;;;;;;5039928;28;46523;-77
2023/12/30 08:10:37;;;;;;;5.07;3.27;;;7.40;41.60;;;;;;5039353;28;46454;-78
2023/12/30 08:13:03;;;;;;;5.23;3.30;;;7.40;41.60;;;;;;5038644;28;46360;-78
2023/12/30 08:15:29;;;;;;;11.13;6.47;;;7.50;41.60;;;;;;5039362;28;46597;-78
2023/12/30 08:17:55;;;;;;;10.50;5.60;;;7.50;41.40;;;;;;5041900;28;46584;-79
2023/12/30 08:20:20;;;;;;;6.87;3.87;;;7.60;41.50;;;;;;5039778;28;45892;-77
2023/12/30 08:22:46;;;;;;;6.20;3.10;;;7.70;41.30;;;;;;5040946;28;46303;-77
2023/12/30 08:25:12;;;;;;;5.43;3.50;;;7.80;40.80;;;;;;5020120;28;49429;-78
2023/12/30 08:27:38;;;;;;;3.43;2.57;;;8.00;40.20;;;;;;5039462;28;46486;-79
2023/12/30 08:30:05;;;;;;;6.70;4.00;;;8.20;39.80;;;;;;5040026;28;46761;-79
2023/12/30 08:32:30;;;;;;;4.53;2.90;;;8.50;38.60;;;;;;5037741;28;46586;-79
2023/12/30 08:34:57;;;;;;;4.10;2.60;;;8.80;38.30;;;;;;5038050;28;46364;-78
2023/12/30 08:37:23;;;;;;;4.60;2.53;;;9.10;37.20;;;;;;5038382;28;46511;-78
2023/12/30 08:39:49;;;;;;;3.90;2.20;;;9.40;36.50;;;;;;5022854;28;46635;-78
2023/12/30 08:42:14;;;;;;;6.40;2.30;;;9.60;35.70;;;;;;5040690;28;46409;-78
2023/12/30 08:44:43;;;;;;;4.30;2.83;;;9.80;35.30;;;;;;5037268;28;46487;-78
2023/12/30 08:47:09;;;;;;;4.13;2.40;;;9.90;35.00;;;;;;5038899;28;46291;-79
2023/12/30 08:49:35;;;;;;;4.47;2.00;;;10.10;33.80;;;;;;5039659;28;46826;-79
2023/12/30 08:52:01;;;;;;;8.47;2.37;;;10.10;33.70;;;;;;5039911;28;46436;-77
2023/12/30 08:54:27;;;;;;;4.30;2.00;;;10.10;33.70;;;;;;5037506;28;46631;-79
2023/12/30 08:57:30;;;;;;;3.23;1.80;;;10.10;34.20;;;;;;5021947;28;46948;-78
2023/12/30 08:59:56;;;;;;;2.97;1.70;;;10.00;34.40;;;;;;5040011;28;46610;-78
2023/12/30 09:02:22;;;;;;;3.40;1.93;;;9.90;36.00;;;;;;5039133;28;46575;-78
2023/12/30 09:04:48;;;;;;;2.80;1.53;;;9.60;36.40;;;;;;5040034;28;46455;-79
2023/12/30 09:07:14;;;;;;;3.60;1.53;;;9.50;36.70;;;;;;5043327;28;46388;-77
2023/12/30 09:09:41;;;;;;;4.33;1.80;;;9.50;36.70;;;;;;5026943;28;46191;-79
2023/12/30 09:12:07;;;;;;;2.37;1.37;;;9.60;36.60;;;;;;5029904;28;46544;-79
2023/12/30 09:14:32;;;;;;;2.00;1.23;;;9.60;36.30;;;;;;5047480;28;45966;-80
2023/12/30 09:16:58;;;;;;;2.43;1.60;;;9.70;36.00;;;;;;5047290;28;46539;-80
2023/12/30 09:19:23;;;;;;;4.23;2.00;;;9.80;35.40;;;;;;5048878;28;46566;-80
2023/12/30 09:21:49;;;;;;;7.70;3.70;;;9.80;35.30;;;;;;5049884;28;46799;-79
2023/12/30 09:24:14;;;;;;;8.23;4.20;;;9.90;35.00;;;;;;5016638;28;48009;-79
2023/12/30 09:26:40;;;;;;;7.93;4.00;;;9.90;34.80;;;;;;5040078;28;46480;-78
2023/12/30 09:29:08;;;;;;;3.90;2.10;;;10.00;33.60;;;;;;5042208;28;46553;-79
2023/12/30 09:31:33;;;;;;;2.50;1.70;;;10.10;33.30;;;;;;5038641;28;46107;-80
2023/12/30 09:33:59;;;;;;;2.57;1.40;;;10.20;32.80;;;;;;5037413;28;46381;-80
2023/12/30 09:36:24;;;;;;;2.97;1.57;;;10.20;32.50;;;;;;5040483;28;46504;-80
2023/12/30 09:38:50;;;;;;;2.80;1.80;;;10.40;32.20;;;;;;5043910;28;46803;-80
2023/12/30 09:41:20;;;;;;;3.33;1.77;;;10.50;31.50;;;;;;5042980;28;46604;-79
2023/12/30 09:43:47;;;;;;;3.30;1.70;;;10.60;30.80;;;;;;5039534;28;47421;-80
2023/12/30 09:46:15;;;;;;;3.67;1.50;;;10.80;30.30;;;;;;5037421;28;46246;-80
2023/12/30 09:48:42;;;;;;;3.00;1.60;;;10.80;30.00;;;;;;5018654;28;46503;-77
2023/12/30 09:51:08;;;;;;;2.97;1.77;;;10.80;29.80;;;;;;5039011;28;46755;-79
2023/12/30 09:53:34;;;;;;;2.80;1.43;;;10.90;29.70;;;;;;5013586;28;49047;-79
2023/12/30 09:56:00;;;;;;;4.20;1.60;;;10.80;29.60;;;;;;5037103;28;46757;-78
2023/12/30 09:58:26;;;;;;;2.30;1.40;;;10.80;29.70;;;;;;5018655;28;46458;-79
2023/12/30 10:00:52;;;;;;;2.30;1.20;;;10.70;29.60;;;;;;5022127;28;46459;-79
2023/12/30 10:03:18;;;;;;;3.30;1.40;;;10.70;29.60;;;;;;5037975;28;46498;-76
2023/12/30 10:05:44;;;;;;;2.73;1.20;;;10.70;29.40;;;;;;5042008;28;45864;-78
2023/12/30 10:08:10;;;;;;;4.00;1.40;;;10.70;29.40;;;;;;5038162;28;46847;-80
2023/12/30 10:10:43;;;;;;;3.50;1.17;;;10.70;29.30;;;;;;5017770;28;46483;-78
2023/12/30 10:13:09;;;;;;;2.40;1.60;;;10.70;29.20;;;;;;5039356;28;47114;-78
2023/12/30 10:15:34;;;;;;;4.67;1.27;;;10.70;29.00;;;;;;5037993;28;47206;-79
2023/12/30 10:18:00;;;;;;;3.30;1.30;;;10.80;28.90;;;;;;5043221;28;46517;-79
2023/12/30 10:20:25;;;;;;;2.57;1.30;;;10.80;28.60;;;;;;5021911;28;46984;-79
2023/12/30 10:22:51;;;;;;;2.30;1.27;;;10.80;28.50;;;;;;5023240;28;47958;-78
2023/12/30 10:25:16;;;;;;;1.90;1.00;;;10.90;28.30;;;;;;5047989;28;46570;-78
2023/12/30 10:27:47;;;;;;;2.50;1.33;;;10.80;28.10;;;;;;5044971;28;46528;-78
2023/12/30 10:30:17;;;;;;;3.07;1.40;;;10.80;26.90;;;;;;5047861;28;46917;-79
2023/12/30 10:32:43;;;;;;;4.00;1.43;;;10.80;27.60;;;;;;5012043;28;48198;-77
2023/12/30 10:35:08;;;;;;;2.80;1.27;;;10.90;27.50;;;;;;5039435;28;46120;-78
2023/12/30 10:37:35;;;;;;;2.67;1.27;;;10.90;28.30;;;;;;5039048;28;46152;-79
2023/12/30 10:40:07;;;;;;;4.83;1.70;;;10.90;26.90;;;;;;5039679;28;46828;-78
2023/12/30 10:42:33;;;;;;;7.50;1.50;;;11.00;26.80;;;;;;5036552;28;46877;-79
2023/12/30 10:44:58;;;;;;;3.67;1.80;;;11.00;26.80;;;;;;5037380;28;45841;-78
2023/12/30 10:47:26;;;;;;;4.93;1.40;;;11.10;26.90;;;;;;5040347;28;47350;-79
2023/12/30 10:49:54;;;;;;;3.47;1.30;;;11.00;26.80;;;;;;5038222;28;46836;-78
2023/12/30 10:52:24;;;;;;;3.00;1.47;;;11.00;26.80;;;;;;5037786;28;47126;-77
2023/12/30 10:54:57;;;;;;;3.50;1.20;;;11.00;26.80;;;;;;5036526;28;46679;-78
2023/12/30 10:57:27;;;;;;;2.30;1.20;;;11.00;26.80;;;;;;5038527;28;48183;-78
2023/12/30 10:59:56;;;;;;;2.23;1.30;;;11.00;26.70;;;;;;5039255;28;47153;-77
2023/12/30 11:02:23;;;;;;;2.27;1.10;;;11.10;26.50;;;;;;5038651;28;46522;-78
2023/12/30 11:04:49;;;;;;;4.70;1.27;;;11.10;26.40;;;;;;5035587;28;46707;-78
2023/12/30 11:07:16;;;;;;;2.87;1.63;;;11.00;26.10;;;;;;5037483;28;46415;-78
2023/12/30 11:09:42;;;;;;;1.90;1.10;;;11.00;25.90;;;;;;5039339;28;47022;-78
2023/12/30 11:12:09;;;;;;;3.47;1.77;;;11.00;26.10;;;;;;5018111;28;48406;-78
2023/12/30 11:14:37;;;;;;;2.43;1.20;;;11.10;26.10;;;;;;5036285;28;46403;-78
2023/12/30 11:17:03;;;;;;;2.33;1.20;;;11.10;26.00;;;;;;5037601;28;46682;-77
2023/12/30 11:19:30;;;;;;;3.77;1.30;;;11.10;25.60;;;;;;5037037;28;47407;-78
2023/12/30 11:21:59;;;;;;;2.60;1.10;;;11.20;25.70;;;;;;5017290;28;48132;-77
2023/12/30 11:24:26;;;;;;;2.47;1.10;;;11.20;24.40;;;;;;5037409;28;46740;-79
2023/12/30 11:26:53;;;;;;;3.23;1.30;;;11.00;24.90;;;;;;5020923;28;46441;-79
2023/12/30 11:29:25;;;;;;;2.90;1.20;;;11.10;24.90;;;;;;5037425;28;46450;-79
2023/12/30 11:31:52;;;;;;;3.20;1.60;;;11.00;24.70;;;;;;5035498;28;46549;-78
2023/12/30 11:34:19;;;;;;;2.17;1.10;;;11.10;24.90;;;;;;5037074;28;47002;-78
2023/12/30 11:36:49;;;;;;;2.27;1.27;;;11.20;24.90;;;;;;5039319;28;46484;-78
2023/12/30 11:39:38;;;;;;;2.43;1.27;;;11.20;24.70;;;;;;5035650;28;46764;-78
2023/12/30 11:42:06;;;;;;;3.13;1.37;;;11.30;24.60;;;;;;5016289;28;47764;-80
2023/12/30 11:44:32;;;;;;;3.30;1.20;;;11.20;24.10;;;;;;5039428;28;46852;-78
2023/12/30 11:46:58;;;;;;;2.60;1.17;;;11.20;24.20;;;;;;5042063;28;46771;-80
2023/12/30 11:49:25;;;;;;;3.47;1.27;;;11.10;23.90;;;;;;5044232;28;46619;-79
2023/12/30 11:51:53;;;;;;;3.50;1.10;;;11.10;24.10;;;;;;5028399;28;48327;-78
2023/12/30 11:54:21;;;;;;;2.53;1.27;;;11.30;24.20;;;;;;5029308;28;46766;-78
2023/12/30 11:56:46;;;;;;;3.67;1.30;;;11.30;24.00;;;;;;5044500;28;47632;-81
2023/12/30 11:59:12;;;;;;;4.77;1.50;;;11.40;23.40;;;;;;5033584;28;45926;-80
2023/12/30 12:01:38;;;;;;;1.83;1.00;;;11.20;23.40;;;;;;5052200;28;47101;-80
2023/12/30 12:04:03;;;;;;;2.40;1.20;;;11.20;23.70;;;;;;5030960;28;46748;-79
2023/12/30 12:06:29;;;;;;;2.17;1.00;;;11.60;23.40;;;;;;5042017;28;46722;-80
2023/12/30 12:08:55;;;;;;;2.57;1.20;;;11.80;23.10;;;;;;5046545;28;46615;-80
2023/12/30 12:11:20;;;;;;;3.30;1.67;;;12.20;22.50;;;;;;5048506;28;46653;-79
2023/12/30 12:13:46;;;;;;;4.20;1.50;;;12.20;21.90;;;;;;5046852;28;46769;-79
2023/12/30 12:16:12;;;;;;;2.10;1.30;;;12.30;21.50;;;;;;5027187;28;45851;-76
2023/12/30 12:18:39;;;;;;;4.23;1.90;;;12.50;21.50;;;;;;5026828;28;46513;-76
2023/12/30 12:21:12;;;;;;;2.67;1.60;;;12.50;21.20;;;;;;5039589;28;47162;-76
2023/12/30 12:23:37;;;;;;;2.97;1.50;;;12.70;20.90;;;;;;5041333;28;46457;-78
2023/12/30 12:26:04;;;;;;;4.30;2.47;;;12.90;20.60;;;;;;5028584;28;46416;-76
2023/12/30 12:28:33;;;;;;;2.73;1.23;;;12.90;20.30;;;;;;5025200;28;46476;-76
2023/12/30 12:31:01;;;;;;;3.47;1.97;;;12.70;19.70;;;;;;5024896;28;48390;-76
2023/12/30 12:33:28;;;;;;;3.30;1.53;;;12.80;20.30;;;;;;5043407;28;46365;-73
2023/12/30 12:35:53;;;;;;;3.43;1.70;;;12.90;20.30;;;;;;5043163;28;46385;-76
2023/12/30 12:38:19;;;;;;;6.03;2.73;;;12.90;20.00;;;;;;5027901;28;46120;-78
2023/12/30 12:40:45;;;;;;;6.20;1.70;;;13.10;19.90;;;;;;5041205;28;46925;-77
2023/12/30 12:43:10;;;;;;;5.80;1.80;;;12.90;19.70;;;;;;5026327;28;47532;-78
2023/12/30 12:45:36;;;;;;;3.60;1.53;;;12.90;19.70;;;;;;5027509;28;46485;-77
2023/12/30 12:48:02;;;;;;;1.90;0.93;;;12.90;19.50;;;;;;5027439;28;46594;-76